Time,TemperatureF,DewpointF,PressureIn,WindDirection,WindDirectionDegrees,WindSpeedMPH,WindSpeedGustMPH,Humidity,HourlyPrecipIn,Conditions,Clouds,dailyrainin,SoftwareType,DateUTC
2013-01-08 00:03:00,73.0,-99.9,30.03,East,94,4.0,15.0,-999,-99.99,,,-99.99,,2013-01-08 10:03:00,
2013-01-08 00:12:00,74.0,-99.9,30.02,ENE,75,6.0,13.0,-999,-99.99,,,-99.99,,2013-01-08 10:12:00,
2013-01-08 00:22:00,74.0,-99.9,30.02,East,83,7.0,18.0,-999,-99.99,,,-99.99,,2013-01-08 10:22:00,
2013-01-08 00:33:00,74.0,-99.9,30.02,NE,50,10.0,19.0,-999,-99.99,,,-99.99,,2013-01-08 10:33:00,
2013-01-08 00:43:00,74.0,-99.9,30.02,ENE,59,7.0,16.0,-999,-99.99,,,-99.99,,2013-01-08 10:43:00,
2013-01-08 00:53:00,73.0,-99.9,30.01,ENE,70,5.0,12.0,-999,-99.99,,,-99.99,,2013-01-08 10:53:00,
2013-01-08 01:02:00,73.0,-99.9,30.01,ENE,59,9.0,14.0,-999,-99.99,,,-99.99,,2013-01-08 11:02:00,
2013-01-08 01:12:00,73.0,-99.9,30.01,ENE,68,5.0,13.0,-999,-99.99,,,-99.99,,2013-01-08 11:12:00,
2013-01-08 01:23:00,74.0,-99.9,30.00,East,91,5.0,11.0,-999,-99.99,,,-99.99,,2013-01-08 11:23:00,
2013-01-08 01:33:00,73.0,-99.9,30.00,East,97,4.0,10.0,-999,-99.99,,,-99.99,,2013-01-08 11:33:00,
2013-01-08 01:43:00,73.0,-99.9,30.00,ENE,66,5.0,11.0,-999,-99.99,,,-99.99,,2013-01-08 11:43:00,
2013-01-08 01:53:00,73.0,-99.9,30.00,East,91,3.0,13.0,-999,-99.99,,,-99.99,,2013-01-08 11:53:00,
2013-01-08 02:03:00,73.0,-99.9,30.00,East,79,4.0,9.0,-999,-99.99,,,-99.99,,2013-01-08 12:03:00,
2013-01-08 02:12:00,73.0,-99.9,30.00,ENE,72,2.0,6.0,-999,-99.99,,,-99.99,,2013-01-08 12:12:00,
2013-01-08 02:22:00,73.0,-99.9,29.99,East,85,4.0,8.0,-999,-99.99,,,-99.99,,2013-01-08 12:22:00,
2013-01-08 02:33:00,73.0,-99.9,29.99,ESE,119,5.0,12.0,-999,-99.99,,,-99.99,,2013-01-08 12:33:00,
2013-01-08 02:43:00,73.0,-99.9,29.98,ESE,112,4.0,13.0,-999,-99.99,,,-99.99,,2013-01-08 12:43:00,
2013-01-08 02:53:00,73.0,-99.9,29.98,ESE,107,6.0,12.0,-999,-99.99,,,-99.99,,2013-01-08 12:53:00,
2013-01-08 03:03:00,73.0,-99.9,29.98,ESE,104,6.0,13.0,-999,-99.99,,,-99.99,,2013-01-08 13:03:00,
2013-01-08 03:13:00,73.0,-99.9,29.97,NE,55,3.0,10.0,-999,-99.99,,,-99.99,,2013-01-08 13:13:00,
2013-01-08 03:22:00,73.0,-99.9,29.97,ESE,105,3.0,9.0,-999,-99.99,,,-99.99,,2013-01-08 13:22:00,
2013-01-08 03:33:00,73.0,-99.9,29.96,ENE,62,6.0,12.0,-999,-99.99,,,-99.99,,2013-01-08 13:33:00,
2013-01-08 03:43:00,73.0,-99.9,29.96,NE,50,3.0,8.0,-999,-99.99,,,-99.99,,2013-01-08 13:43:00,
2013-01-08 03:53:00,73.0,-99.9,29.96,ENE,59,7.0,13.0,-999,-99.99,,,-99.99,,2013-01-08 13:53:00,
2013-01-08 04:03:00,73.0,-99.9,29.96,East,95,6.0,15.0,-999,-99.99,,,-99.99,,2013-01-08 14:03:00,
2013-01-08 04:13:00,73.0,-99.9,29.95,East,79,6.0,11.0,-999,-99.99,,,-99.99,,2013-01-08 14:13:00,
2013-01-08 04:23:00,73.0,-99.9,29.95,ENE,72,4.0,13.0,-999,-99.99,,,-99.99,,2013-01-08 14:23:00,
2013-01-08 04:33:00,73.0,-99.9,29.95,ENE,64,3.0,9.0,-999,-99.99,,,-99.99,,2013-01-08 14:33:00,
2013-01-08 04:43:00,73.0,-99.9,29.95,ENE,60,9.0,13.0,-999,-99.99,,,-99.99,,2013-01-08 14:43:00,
2013-01-08 04:53:00,73.0,-99.9,29.95,ENE,57,9.0,13.0,-999,-99.99,,,-99.99,,2013-01-08 14:53:00,
2013-01-08 05:03:00,73.0,-99.9,29.95,ENE,67,7.0,12.0,-999,-99.99,,,-99.99,,2013-01-08 15:03:00,
2013-01-08 05:12:00,73.0,-99.9,29.95,East,80,9.0,14.0,-999,-99.99,,,-99.99,,2013-01-08 15:12:00,
2013-01-08 05:23:00,73.0,-99.9,29.95,ENE,67,5.0,18.0,-999,-99.99,,,-99.99,,2013-01-08 15:23:00,
2013-01-08 05:33:00,73.0,-99.9,29.94,ENE,58,2.0,10.0,-999,-99.99,,,-99.99,,2013-01-08 15:33:00,
2013-01-08 05:43:00,73.0,-99.9,29.94,NE,55,4.0,10.0,-999,-99.99,,,-99.99,,2013-01-08 15:43:00,
2013-01-08 05:53:00,73.0,-99.9,29.95,SE,126,2.0,7.0,-999,-99.99,,,-99.99,,2013-01-08 15:53:00,
2013-01-08 06:03:00,73.0,-99.9,29.95,ENE,69,3.0,7.0,-999,-99.99,,,-99.99,,2013-01-08 16:03:00,
2013-01-08 06:13:00,73.0,-99.9,29.95,NE,42,4.0,8.0,-999,-99.99,,,-99.99,,2013-01-08 16:13:00,
2013-01-08 06:23:00,73.0,-99.9,29.95,NNE,33,3.0,8.0,-999,-99.99,,,-99.99,,2013-01-08 16:23:00,
2013-01-08 06:34:00,73.0,-99.9,29.95,NE,45,5.0,9.0,-999,-99.99,,,-99.99,,2013-01-08 16:34:00,
2013-01-08 06:43:00,73.0,-99.9,29.95,NE,49,4.0,10.0,-999,-99.99,,,-99.99,,2013-01-08 16:43:00,
2013-01-08 06:53:00,73.0,-99.9,29.96,NE,52,6.0,16.0,-999,-99.99,,,-99.99,,2013-01-08 16:53:00,
2013-01-08 07:03:00,73.0,-99.9,29.96,ESE,106,7.0,11.0,-999,-99.99,,,-99.99,,2013-01-08 17:03:00,
2013-01-08 07:13:00,73.0,-99.9,29.96,ESE,106,4.0,11.0,-999,-99.99,,,-99.99,,2013-01-08 17:13:00,
2013-01-08 07:23:00,73.0,-99.9,29.96,East,80,5.0,11.0,-999,-99.99,,,-99.99,,2013-01-08 17:23:00,
2013-01-08 07:34:00,73.0,-99.9,29.96,ENE,58,5.0,15.0,-999,-99.99,,,-99.99,,2013-01-08 17:34:00,
2013-01-08 07:43:00,73.0,-99.9,29.96,ENE,58,6.0,16.0,-999,-99.99,,,-99.99,,2013-01-08 17:43:00,
2013-01-08 07:54:00,73.0,-99.9,29.96,East,84,8.0,14.0,-999,-99.99,,,-99.99,,2013-01-08 17:54:00,
2013-01-08 08:04:00,74.0,-99.9,29.96,East,92,6.0,11.0,-999,-99.99,,,-99.99,,2013-01-08 18:04:00,
2013-01-08 08:13:00,74.0,-99.9,29.96,ENE,65,3.0,13.0,-999,-99.99,,,-99.99,,2013-01-08 18:13:00,
2013-01-08 08:24:00,74.0,-99.9,29.96,ENE,65,7.0,12.0,-999,-99.99,,,-99.99,,2013-01-08 18:24:00,
2013-01-08 08:33:00,74.0,-99.9,29.97,East,99,11.0,17.0,-999,-99.99,,,-99.99,,2013-01-08 18:33:00,
2013-01-08 08:43:00,74.0,-99.9,29.97,NE,49,9.0,15.0,-999,-99.99,,,-99.99,,2013-01-08 18:43:00,
2013-01-08 08:53:00,74.0,-99.9,29.98,East,84,6.0,13.0,-999,-99.99,,,-99.99,,2013-01-08 18:53:00,
2013-01-08 09:03:00,74.0,-99.9,29.98,East,91,8.0,18.0,-999,-99.99,,,-99.99,,2013-01-08 19:03:00,
2013-01-08 09:12:00,74.0,-99.9,29.98,ENE,63,5.0,12.0,-999,-99.99,,,-99.99,,2013-01-08 19:12:00,
2013-01-08 09:23:00,75.0,-99.9,29.99,ENE,57,6.0,16.0,-999,-99.99,,,-99.99,,2013-01-08 19:23:00,
2013-01-08 09:33:00,76.0,-99.9,29.99,East,82,2.0,10.0,-999,-99.99,,,-99.99,,2013-01-08 19:33:00,
2013-01-08 09:43:00,76.0,-99.9,29.99,East,100,5.0,15.0,-999,-99.99,,,-99.99,,2013-01-08 19:43:00,
2013-01-08 09:53:00,76.0,-99.9,30.00,East,98,5.0,14.0,-999,-99.99,,,-99.99,,2013-01-08 19:53:00,
2013-01-08 10:03:00,76.0,-99.9,30.00,East,79,5.0,10.0,-999,-99.99,,,-99.99,,2013-01-08 20:03:00,
2013-01-08 10:12:00,76.0,-99.9,30.00,ENE,71,9.0,15.0,-999,-99.99,,,-99.99,,2013-01-08 20:12:00,
2013-01-08 10:23:00,76.0,-99.9,30.00,ENE,74,6.0,19.0,-999,-99.99,,,-99.99,,2013-01-08 20:23:00,
2013-01-08 10:33:00,76.0,-99.9,29.99,ENE,74,9.0,19.0,-999,-99.99,,,-99.99,,2013-01-08 20:33:00,
2013-01-08 10:43:00,76.0,-99.9,29.99,NE,53,7.0,19.0,-999,-99.99,,,-99.99,,2013-01-08 20:43:00,
2013-01-08 10:54:00,76.0,-99.9,29.99,ENE,60,9.0,15.0,-999,-99.99,,,-99.99,,2013-01-08 20:54:00,
2013-01-08 11:03:00,76.0,-99.9,29.98,ENE,73,7.0,16.0,-999,-99.99,,,-99.99,,2013-01-08 21:03:00,
2013-01-08 11:13:00,76.0,-99.9,29.98,ENE,72,8.0,16.0,-999,-99.99,,,-99.99,,2013-01-08 21:13:00,
2013-01-08 11:23:00,76.0,-99.9,29.98,East,87,13.0,22.0,-999,-99.99,,,-99.99,,2013-01-08 21:23:00,
2013-01-08 11:33:00,76.0,-99.9,29.98,ENE,74,7.0,20.0,-999,-99.99,,,-99.99,,2013-01-08 21:33:00,
2013-01-08 11:43:00,76.0,-99.9,29.98,ENE,57,12.0,29.0,-999,-99.99,,,-99.99,,2013-01-08 21:43:00,
2013-01-08 11:53:00,74.0,-99.9,29.98,ENE,76,7.0,17.0,-999,-99.99,,,-99.99,,2013-01-08 21:53:00,
2013-01-08 12:04:00,76.0,-99.9,29.97,ENE,66,5.0,17.0,-999,-99.99,,,-99.99,,2013-01-08 22:04:00,
2013-01-08 12:13:00,76.0,-99.9,29.96,ENE,59,5.0,10.0,-999,-99.99,,,-99.99,,2013-01-08 22:13:00,
2013-01-08 12:23:00,77.0,-99.9,29.96,East,79,5.0,17.0,-999,-99.99,,,-99.99,,2013-01-08 22:23:00,
2013-01-08 12:33:00,77.0,-99.9,29.95,ENE,75,11.0,22.0,-999,-99.99,,,-99.99,,2013-01-08 22:33:00,
2013-01-08 12:43:00,76.0,-99.9,29.95,NE,49,12.0,18.0,-999,-99.99,,,-99.99,,2013-01-08 22:43:00,
2013-01-08 12:53:00,77.0,-99.9,29.94,ENE,66,8.0,17.0,-999,-99.99,,,-99.99,,2013-01-08 22:53:00,
2013-01-08 13:03:00,76.0,-99.9,29.94,ENE,57,11.0,23.0,-999,-99.99,,,-99.99,,2013-01-08 23:03:00,
2013-01-08 13:13:00,77.0,-99.9,29.93,ENE,68,7.0,20.0,-999,-99.99,,,-99.99,,2013-01-08 23:13:00,
2013-01-08 13:23:00,78.0,-99.9,29.93,ENE,64,7.0,17.0,-999,-99.99,,,-99.99,,2013-01-08 23:23:00,
2013-01-08 13:33:00,78.0,-99.9,29.93,East,95,6.0,19.0,-999,-99.99,,,-99.99,,2013-01-08 23:33:00,
2013-01-08 13:43:00,77.0,-99.9,29.93,NE,48,13.0,26.0,-999,-99.99,,,-99.99,,2013-01-08 23:43:00,
2013-01-08 13:53:00,77.0,-99.9,29.92,ENE,60,11.0,26.0,-999,-99.99,,,-99.99,,2013-01-08 23:53:00,
2013-01-08 14:03:00,77.0,-99.9,29.92,ENE,76,7.0,19.0,-999,-99.99,,,-99.99,,2013-01-09 00:03:00,
2013-01-08 14:13:00,78.0,-99.9,29.91,ESE,104,9.0,17.0,-999,-99.99,,,-99.99,,2013-01-09 00:13:00,
2013-01-08 14:22:00,77.0,-99.9,29.91,NE,53,11.0,19.0,-999,-99.99,,,-99.99,,2013-01-09 00:22:00,
2013-01-08 14:33:00,76.0,-99.9,29.91,ENE,71,14.0,23.0,-999,-99.99,,,-99.99,,2013-01-09 00:33:00,
2013-01-08 14:43:00,75.0,-99.9,29.91,NE,50,13.0,21.0,-999,-99.99,,,-99.99,,2013-01-09 00:43:00,
2013-01-08 14:53:00,76.0,-99.9,29.91,NE,50,8.0,20.0,-999,-99.99,,,-99.99,,2013-01-09 00:53:00,
2013-01-08 15:02:00,76.0,-99.9,29.91,ENE,75,7.0,18.0,-999,-99.99,,,-99.99,,2013-01-09 01:02:00,
2013-01-08 15:12:00,76.0,-99.9,29.91,NE,55,11.0,20.0,-999,-99.99,,,-99.99,,2013-01-09 01:12:00,
2013-01-08 15:22:00,76.0,-99.9,29.91,ENE,60,7.0,16.0,-999,-99.99,,,-99.99,,2013-01-09 01:22:00,
2013-01-08 15:33:00,76.0,-99.9,29.91,NE,54,8.0,20.0,-999,-99.99,,,-99.99,,2013-01-09 01:33:00,
2013-01-08 15:43:00,76.0,-99.9,29.91,ENE,61,9.0,18.0,-999,-99.99,,,-99.99,,2013-01-09 01:43:00,
2013-01-08 15:53:00,75.0,-99.9,29.91,East,84,9.0,17.0,-999,-99.99,,,-99.99,,2013-01-09 01:53:00,
2013-01-08 16:02:00,76.0,-99.9,29.92,NE,51,13.0,24.0,-999,-99.99,,,-99.99,,2013-01-09 02:02:00,
2013-01-08 16:12:00,75.0,-99.9,29.93,ENE,77,9.0,22.0,-999,-99.99,,,-99.99,,2013-01-09 02:12:00,
2013-01-08 16:23:00,75.0,-99.9,29.93,ENE,58,11.0,20.0,-999,-99.99,,,-99.99,,2013-01-09 02:23:00,
2013-01-08 16:33:00,75.0,-99.9,29.93,NE,47,8.0,15.0,-999,-99.99,,,-99.99,,2013-01-09 02:33:00,
2013-01-08 16:43:00,76.0,-99.9,29.93,East,84,8.0,17.0,-999,-99.99,,,-99.99,,2013-01-09 02:43:00,
2013-01-08 16:53:00,76.0,-99.9,29.93,East,79,6.0,16.0,-999,-99.99,,,-99.99,,2013-01-09 02:53:00,
2013-01-08 17:03:00,76.0,-99.9,29.94,ENE,69,11.0,22.0,-999,-99.99,,,-99.99,,2013-01-09 03:03:00,
2013-01-08 17:12:00,75.0,-99.9,29.94,ENE,65,6.0,22.0,-999,-99.99,,,-99.99,,2013-01-09 03:12:00,
2013-01-08 17:22:00,75.0,-99.9,29.94,ENE,64,8.0,19.0,-999,-99.99,,,-99.99,,2013-01-09 03:22:00,
2013-01-08 17:33:00,74.0,-99.9,29.95,ENE,68,7.0,18.0,-999,-99.99,,,-99.99,,2013-01-09 03:33:00,
2013-01-08 17:43:00,74.0,-99.9,29.95,ENE,66,8.0,18.0,-999,-99.99,,,-99.99,,2013-01-09 03:43:00,
2013-01-08 17:53:00,74.0,-99.9,29.95,East,85,9.0,17.0,-999,-99.99,,,-99.99,,2013-01-09 03:53:00,
2013-01-08 18:02:00,74.0,-99.9,29.95,ENE,78,6.0,17.0,-999,-99.99,,,-99.99,,2013-01-09 04:02:00,
2013-01-08 18:12:00,74.0,-99.9,29.96,ESE,105,7.0,15.0,-999,-99.99,,,-99.99,,2013-01-09 04:12:00,
2013-01-08 18:23:00,74.0,-99.9,29.95,ENE,66,6.0,12.0,-999,-99.99,,,-99.99,,2013-01-09 04:23:00,
2013-01-08 18:33:00,74.0,-99.9,29.95,ENE,60,9.0,16.0,-999,-99.99,,,-99.99,,2013-01-09 04:33:00,
2013-01-08 18:43:00,73.0,-99.9,29.96,ENE,68,5.0,14.0,-999,-99.99,,,-99.99,,2013-01-09 04:43:00,
2013-01-08 18:53:00,71.0,-99.9,29.97,ENE,61,14.0,27.0,-999,-99.99,,,-99.99,,2013-01-09 04:53:00,
2013-01-08 19:03:00,72.0,-99.9,29.97,ENE,66,6.0,20.0,-999,-99.99,,,-99.99,,2013-01-09 05:03:00,
2013-01-08 19:12:00,73.0,-99.9,29.97,East,87,6.0,17.0,-999,-99.99,,,-99.99,,2013-01-09 05:12:00,
2013-01-08 19:22:00,73.0,-99.9,29.97,ENE,57,4.0,21.0,-999,-99.99,,,-99.99,,2013-01-09 05:22:00,
2013-01-08 19:33:00,72.0,-99.9,29.98,ESE,108,5.0,13.0,-999,-99.99,,,-99.99,,2013-01-09 05:33:00,
2013-01-08 19:43:00,72.0,-99.9,29.98,East,97,8.0,17.0,-999,-99.99,,,-99.99,,2013-01-09 05:43:00,
2013-01-08 19:53:00,72.0,-99.9,29.98,East,100,5.0,8.0,-999,-99.99,,,-99.99,,2013-01-09 05:53:00,
2013-01-08 20:02:00,72.0,-99.9,29.98,ENE,72,6.0,13.0,-999,-99.99,,,-99.99,,2013-01-09 06:02:00,
2013-01-08 20:12:00,72.0,-99.9,29.98,ENE,61,6.0,13.0,-999,-99.99,,,-99.99,,2013-01-09 06:12:00,
2013-01-08 20:22:00,72.0,-99.9,29.99,ENE,71,4.0,13.0,-999,-99.99,,,-99.99,,2013-01-09 06:22:00,
2013-01-08 20:32:00,72.0,-99.9,30.00,NE,46,4.0,12.0,-999,-99.99,,,-99.99,,2013-01-09 06:32:00,
2013-01-08 20:43:00,72.0,-99.9,30.00,NE,55,8.0,15.0,-999,-99.99,,,-99.99,,2013-01-09 06:43:00,
2013-01-08 20:53:00,72.0,-99.9,30.00,NE,49,9.0,19.0,-999,-99.99,,,-99.99,,2013-01-09 06:53:00,
2013-01-08 21:02:00,72.0,-99.9,30.01,East,88,4.0,15.0,-999,-99.99,,,-99.99,,2013-01-09 07:02:00,
2013-01-08 21:12:00,72.0,-99.9,30.01,ENE,75,7.0,18.0,-999,-99.99,,,-99.99,,2013-01-09 07:12:00,
2013-01-08 21:22:00,72.0,-99.9,30.01,East,100,4.0,13.0,-999,-99.99,,,-99.99,,2013-01-09 07:22:00,
2013-01-08 21:32:00,72.0,-99.9,30.01,East,80,3.0,6.0,-999,-99.99,,,-99.99,,2013-01-09 07:32:00,
2013-01-08 21:43:00,72.0,-99.9,30.02,East,79,5.0,10.0,-999,-99.99,,,-99.99,,2013-01-09 07:43:00,
2013-01-08 21:53:00,72.0,-99.9,30.02,NE,36,2.0,8.0,-999,-99.99,,,-99.99,,2013-01-09 07:53:00,
2013-01-08 22:02:00,72.0,-99.9,30.02,NE,46,5.0,9.0,-999,-99.99,,,-99.99,,2013-01-09 08:02:00,
2013-01-08 22:12:00,72.0,-99.9,30.02,ENE,69,4.0,9.0,-999,-99.99,,,-99.99,,2013-01-09 08:12:00,
2013-01-08 22:22:00,72.0,-99.9,30.01,East,82,5.0,14.0,-999,-99.99,,,-99.99,,2013-01-09 08:22:00,
2013-01-08 22:32:00,72.0,-99.9,30.01,ENE,66,4.0,17.0,-999,-99.99,,,-99.99,,2013-01-09 08:32:00,
2013-01-08 22:43:00,73.0,-99.9,30.01,ENE,77,2.0,11.0,-999,-99.99,,,-99.99,,2013-01-09 08:43:00,
2013-01-08 22:53:00,72.0,-99.9,30.01,ESE,107,6.0,13.0,-999,-99.99,,,-99.99,,2013-01-09 08:53:00,
2013-01-08 23:03:00,72.0,-99.9,30.00,ESE,115,11.0,18.0,-999,-99.99,,,-99.99,,2013-01-09 09:03:00,
2013-01-08 23:12:00,72.0,-99.9,30.00,ESE,123,7.0,15.0,-999,-99.99,,,-99.99,,2013-01-09 09:12:00,
2013-01-08 23:22:00,72.0,-99.9,30.00,East,80,5.0,15.0,-999,-99.99,,,-99.99,,2013-01-09 09:22:00,
2013-01-08 23:32:00,72.0,-99.9,30.00,East,84,4.0,12.0,-999,-99.99,,,-99.99,,2013-01-09 09:32:00,
2013-01-08 23:42:00,72.0,-99.9,30.00,NE,46,3.0,7.0,-999,-99.99,,,-99.99,,2013-01-09 09:42:00,
2013-01-08 23:53:00,72.0,-99.9,30.00,NE,50,7.0,14.0,-999,-99.99,,,-99.99,,2013-01-09 09:53:00,